createdAt,value
2017-01-19T00:00:04.755Z,-4.63
2017-01-19T00:00:46.424Z,-4.68
2017-01-19T00:01:28.076Z,-4.67
2017-01-19T00:02:09.715Z,-4.68
2017-01-19T00:02:51.290Z,-4.75
2017-01-19T00:03:33.030Z,-4.69
2017-01-19T00:04:14.743Z,-4.71
2017-01-19T00:05:53.804Z,-4.72
2017-01-19T00:06:35.579Z,-4.75
2017-01-19T00:07:17.366Z,-4.71
2017-01-19T00:07:59.058Z,-4.72
2017-01-19T00:08:40.783Z,-4.71
2017-01-19T00:09:22.493Z,-4.69
2017-01-19T00:10:04.247Z,-4.74
2017-01-19T00:10:45.960Z,-4.75
2017-01-19T00:11:27.663Z,-4.75
2017-01-19T00:12:09.331Z,-4.74
2017-01-19T00:12:51.083Z,-4.71
2017-01-19T00:13:32.784Z,-4.71
2017-01-19T00:14:14.503Z,-4.78
2017-01-19T00:14:56.098Z,-4.78
2017-01-19T00:15:37.815Z,-4.75
2017-01-19T00:16:19.482Z,-4.75
2017-01-19T00:17:01.191Z,-4.74
2017-01-19T00:17:42.924Z,-4.75
2017-01-19T00:18:24.631Z,-4.79
2017-01-19T00:19:06.296Z,-4.78
2017-01-19T00:20:45.308Z,-4.89
2017-01-19T00:21:26.910Z,-4.87
2017-01-19T00:22:08.661Z,-4.89
2017-01-19T00:22:50.379Z,-4.85
2017-01-19T00:23:32.071Z,-4.83
2017-01-19T00:24:13.810Z,-4.81
2017-01-19T00:24:55.430Z,-4.83
2017-01-19T00:27:10.628Z,-4.89
2017-01-19T00:27:52.363Z,-4.86
2017-01-19T00:28:34.085Z,-4.75
2017-01-19T00:29:15.785Z,-4.75
2017-01-19T00:29:57.557Z,-4.85
2017-01-19T00:30:39.232Z,-4.72
2017-01-19T00:31:20.954Z,-4.78
2017-01-19T00:32:02.572Z,-4.78
2017-01-19T00:32:44.329Z,-4.74
2017-01-19T00:33:26.127Z,-4.75
2017-01-19T00:34:07.941Z,-4.78
2017-01-19T00:34:49.670Z,-4.79
2017-01-19T00:35:31.262Z,-4.86
2017-01-19T00:37:10.236Z,-4.86
2017-01-19T00:37:52.030Z,-4.85
2017-01-19T00:38:33.736Z,-4.89
2017-01-19T00:39:15.483Z,-4.78
2017-01-19T00:39:57.194Z,-4.79
2017-01-19T00:41:46.469Z,-4.86
2017-01-19T00:42:28.234Z,-4.92
2017-01-19T00:44:17.600Z,-4.83
2017-01-19T00:44:59.308Z,-4.85
2017-01-19T00:45:41.072Z,-4.83
2017-01-19T00:46:22.833Z,-4.81
2017-01-19T00:47:04.555Z,-4.86
2017-01-19T00:47:46.308Z,-4.93
2017-01-19T00:48:27.947Z,-4.86
2017-01-19T00:49:09.707Z,-4.89
2017-01-19T00:49:51.473Z,-4.87
2017-01-19T00:50:33.158Z,-4.93
2017-01-19T00:51:14.873Z,-4.9
2017-01-19T00:51:56.502Z,-4.92
2017-01-19T00:52:38.240Z,-4.95
2017-01-19T00:53:19.898Z,-4.93
2017-01-19T00:54:01.624Z,-4.87
2017-01-19T00:54:43.314Z,-4.9
2017-01-19T00:56:43.258Z,-4.89
2017-01-19T00:57:24.668Z,-4.93
2017-01-19T00:58:06.409Z,-4.9
2017-01-19T00:58:48.091Z,-4.85
2017-01-19T00:59:29.790Z,-4.96
2017-01-19T01:00:11.445Z,-4.86
2017-01-19T01:00:53.096Z,-4.93
2017-01-19T01:01:34.590Z,-4.86
2017-01-19T01:02:16.352Z,-4.9
2017-01-19T01:04:16.167Z,-4.83
2017-01-19T01:04:57.485Z,-4.87
2017-01-19T01:05:39.258Z,-4.85
2017-01-19T01:06:20.677Z,-4.86
2017-01-19T01:07:02.318Z,-4.83
2017-01-19T01:07:43.984Z,-4.93
2017-01-19T01:08:25.372Z,-4.9
2017-01-19T01:10:19.876Z,-5
2017-01-19T01:11:58.828Z,-4.86
2017-01-19T01:13:58.750Z,-4.9
2017-01-19T01:14:40.479Z,-4.95
2017-01-19T01:15:22.113Z,-5.03
2017-01-19T01:16:03.805Z,-4.97
2017-01-19T01:16:45.620Z,-4.97
2017-01-19T01:17:27.175Z,-4.97
2017-01-19T01:18:08.828Z,-5
2017-01-19T01:18:50.503Z,-5.03
2017-01-19T01:19:32.283Z,-5.03
2017-01-19T01:20:14.084Z,-4.96
2017-01-19T01:20:55.786Z,-4.96
2017-01-19T01:21:37.480Z,-5.06
2017-01-19T01:22:19.198Z,-4.97
2017-01-19T01:24:13.957Z,-4.96
2017-01-19T01:26:29.290Z,-5.08
2017-01-19T01:27:10.855Z,-5.13
2017-01-19T01:28:49.960Z,-5.1
2017-01-19T01:29:31.737Z,-5.08
2017-01-19T01:30:13.461Z,-5.17
2017-01-19T01:30:55.153Z,-5.11
2017-01-19T01:31:36.710Z,-5.17
2017-01-19T01:32:18.423Z,-5.17
2017-01-19T01:33:00.090Z,-5.17
2017-01-19T01:33:41.664Z,-5.14
2017-01-19T01:34:23.323Z,-5.1
2017-01-19T01:35:04.942Z,-5.14
2017-01-19T01:36:43.943Z,-5.11
2017-01-19T01:37:25.469Z,-5.14
2017-01-19T01:38:07.138Z,-5.11
2017-01-19T01:38:48.859Z,-5.17
2017-01-19T01:39:30.513Z,-5.1
2017-01-19T01:40:12.167Z,-5.13
2017-01-19T01:42:01.393Z,-5.11
2017-01-19T01:42:43.095Z,-5.18
2017-01-19T01:44:22.124Z,-5.23
2017-01-19T01:46:37.548Z,-5.22
2017-01-19T01:47:19.267Z,-5.25
2017-01-19T01:49:13.906Z,-5.25
2017-01-19T01:49:55.675Z,-5.18
2017-01-19T01:50:37.438Z,-5.19
2017-01-19T01:51:19.161Z,-5.22
2017-01-19T01:52:00.691Z,-5.22
2017-01-19T01:54:00.708Z,-5.29
2017-01-19T01:54:42.449Z,-5.19
2017-01-19T01:55:24.080Z,-5.22
2017-01-19T01:57:03.064Z,-5.3
2017-01-19T01:58:57.806Z,-5.35
2017-01-19T01:59:39.324Z,-5.36
2017-01-19T02:00:20.302Z,-5.29
2017-01-19T02:01:00.834Z,-5.36
2017-01-19T02:01:41.398Z,-5.26
2017-01-19T02:02:21.923Z,-5.35
2017-01-19T02:03:02.450Z,-5.37
2017-01-19T02:03:42.974Z,-5.27
2017-01-19T02:04:23.507Z,-5.32
2017-01-19T02:05:04.029Z,-5.35
2017-01-19T02:05:44.558Z,-5.32
2017-01-19T02:06:25.092Z,-5.3
2017-01-19T02:07:05.608Z,-5.35
2017-01-19T02:07:46.137Z,-5.37
2017-01-19T02:08:26.666Z,-5.35
2017-01-19T02:09:07.195Z,-5.36
2017-01-19T02:09:47.722Z,-5.32
2017-01-19T02:10:28.238Z,-5.41
2017-01-19T02:11:08.771Z,-5.44
2017-01-19T02:11:49.301Z,-5.36
2017-01-19T02:12:29.831Z,-5.41
2017-01-19T02:13:10.361Z,-5.37
2017-01-19T02:13:50.891Z,-5.39
2017-01-19T02:14:31.423Z,-5.37
2017-01-19T02:15:11.954Z,-5.43
2017-01-19T02:15:52.525Z,-5.44
2017-01-19T02:16:33.054Z,-5.35
2017-01-19T02:17:13.582Z,-5.35
2017-01-19T02:17:54.110Z,-5.37
2017-01-19T02:18:34.639Z,-5.37
2017-01-19T02:19:15.176Z,-5.36
2017-01-19T02:19:55.705Z,-5.39
2017-01-19T02:20:36.232Z,-5.39
2017-01-19T02:21:16.778Z,-5.44
2017-01-19T02:21:57.289Z,-5.35
2017-01-19T02:22:37.816Z,-5.33
2017-01-19T02:23:18.346Z,-5.41
2017-01-19T02:23:58.882Z,-5.44
2017-01-19T02:24:39.412Z,-5.47
2017-01-19T02:25:19.941Z,-5.43
2017-01-19T02:26:00.472Z,-5.5
2017-01-19T02:26:41.002Z,-5.46
2017-01-19T02:27:21.538Z,-5.33
2017-01-19T02:28:02.068Z,-5.5
2017-01-19T02:28:42.593Z,-5.44
2017-01-19T02:29:23.122Z,-5.39
2017-01-19T02:30:03.662Z,-5.44
2017-01-19T02:30:44.191Z,-5.44
2017-01-19T02:31:24.721Z,-5.5
2017-01-19T02:32:05.258Z,-5.43
2017-01-19T02:32:45.791Z,-5.51
2017-01-19T02:33:26.324Z,-5.57
2017-01-19T02:34:06.853Z,-5.55
2017-01-19T02:34:47.378Z,-5.5
2017-01-19T02:35:27.912Z,-5.41
2017-01-19T02:36:08.438Z,-5.43
2017-01-19T02:36:48.973Z,-5.5
2017-01-19T02:37:29.503Z,-5.47
2017-01-19T02:38:10.029Z,-5.46
2017-01-19T02:38:50.557Z,-5.47
2017-01-19T02:39:31.094Z,-5.43
2017-01-19T02:40:11.622Z,-5.35
2017-01-19T02:40:52.152Z,-5.39
2017-01-19T02:41:32.679Z,-5.43
2017-01-19T02:42:13.205Z,-5.35
2017-01-19T02:42:53.737Z,-5.39
2017-01-19T02:43:34.267Z,-5.39
2017-01-19T02:44:14.796Z,-5.47
2017-01-19T02:44:55.329Z,-5.5
2017-01-19T02:45:35.852Z,-5.47
2017-01-19T02:46:16.385Z,-5.43
2017-01-19T02:46:56.907Z,-5.46
2017-01-19T02:47:37.429Z,-5.47
2017-01-19T02:48:17.961Z,-5.57
2017-01-19T02:48:58.502Z,-5.46
2017-01-19T02:49:39.028Z,-5.55
2017-01-19T02:50:19.550Z,-5.51
2017-01-19T02:51:00.084Z,-5.5
2017-01-19T02:51:40.613Z,-5.53
2017-01-19T02:52:21.142Z,-5.54
2017-01-19T02:53:01.676Z,-5.54
2017-01-19T02:53:42.208Z,-5.5
2017-01-19T02:54:22.735Z,-5.5
2017-01-19T02:55:03.262Z,-5.57
2017-01-19T02:55:43.794Z,-5.54
2017-01-19T02:56:24.328Z,-5.55
2017-01-19T02:57:04.852Z,-5.54
2017-01-19T02:57:45.386Z,-5.53
2017-01-19T02:58:25.917Z,-5.55
2017-01-19T02:59:06.443Z,-5.54
2017-01-19T02:59:46.970Z,-5.54
2017-01-19T03:00:27.486Z,-5.59
2017-01-19T03:01:08.019Z,-5.57
2017-01-19T03:01:48.550Z,-5.54
2017-01-19T03:02:29.083Z,-5.62
2017-01-19T03:03:09.613Z,-5.61
2017-01-19T03:03:50.188Z,-5.66
2017-01-19T03:04:30.707Z,-5.62
2017-01-19T03:05:11.236Z,-5.55
2017-01-19T03:05:51.767Z,-5.51
2017-01-19T03:06:32.296Z,-5.5
2017-01-19T03:07:12.830Z,-5.59
2017-01-19T03:07:53.358Z,-5.59
2017-01-19T03:08:33.888Z,-5.59
2017-01-19T03:09:14.419Z,-5.53
2017-01-19T03:09:54.949Z,-5.61
2017-01-19T03:10:35.480Z,-5.53
2017-01-19T03:11:16.012Z,-5.59
2017-01-19T03:11:56.542Z,-5.53
2017-01-19T03:12:37.068Z,-5.53
2017-01-19T03:13:17.598Z,-5.54
2017-01-19T03:13:58.125Z,-5.54
2017-01-19T03:14:38.653Z,-5.54
2017-01-19T03:15:19.179Z,-5.53
2017-01-19T03:15:59.709Z,-5.53
2017-01-19T03:16:40.243Z,-5.54
2017-01-19T03:17:20.770Z,-5.54
2017-01-19T03:18:01.316Z,-5.47
2017-01-19T03:18:41.845Z,-5.57
2017-01-19T03:19:22.363Z,-5.59
2017-01-19T03:20:02.902Z,-5.54
2017-01-19T03:20:43.433Z,-5.55
2017-01-19T03:21:23.959Z,-5.61
2017-01-19T03:22:04.487Z,-5.57
2017-01-19T03:22:45.026Z,-5.53
2017-01-19T03:23:25.547Z,-5.53
2017-01-19T03:24:06.076Z,-5.55
2017-01-19T03:24:46.606Z,-5.54
2017-01-19T03:25:27.137Z,-5.53
2017-01-19T03:26:07.668Z,-5.55
2017-01-19T03:26:48.196Z,-5.55
2017-01-19T03:27:28.728Z,-5.54
2017-01-19T03:28:09.254Z,-5.55
2017-01-19T03:28:49.784Z,-5.65
2017-01-19T03:29:30.315Z,-5.55
2017-01-19T03:30:10.847Z,-5.64
2017-01-19T03:30:51.375Z,-5.66
2017-01-19T03:31:31.906Z,-5.68
2017-01-19T03:32:12.435Z,-5.69
2017-01-19T03:32:52.964Z,-5.65
2017-01-19T03:33:33.490Z,-5.62
2017-01-19T03:34:14.017Z,-5.66
2017-01-19T03:34:54.544Z,-5.59
2017-01-19T03:35:35.083Z,-5.62
2017-01-19T03:36:15.618Z,-5.62
2017-01-19T03:36:56.137Z,-5.75
2017-01-19T03:37:36.669Z,-5.66
2017-01-19T03:38:17.200Z,-5.71
2017-01-19T03:38:57.736Z,-5.65
2017-01-19T03:39:38.267Z,-5.65
2017-01-19T03:40:18.787Z,-5.65
2017-01-19T03:40:59.325Z,-5.76
2017-01-19T03:41:39.859Z,-5.8
2017-01-19T03:42:20.390Z,-5.72
2017-01-19T03:43:00.921Z,-5.8
2017-01-19T03:43:41.450Z,-5.72
2017-01-19T03:44:21.983Z,-5.76
2017-01-19T03:45:02.514Z,-5.75
2017-01-19T03:45:43.042Z,-5.72
2017-01-19T03:46:23.571Z,-5.72
2017-01-19T03:47:04.103Z,-5.72
2017-01-19T03:47:44.628Z,-5.74
2017-01-19T03:48:25.153Z,-5.72
2017-01-19T03:49:05.695Z,-5.76
2017-01-19T03:49:46.223Z,-5.74
2017-01-19T03:50:26.753Z,-5.74
2017-01-19T03:51:07.278Z,-5.74
2017-01-19T03:51:47.804Z,-5.76
2017-01-19T03:52:28.356Z,-5.86
2017-01-19T03:53:08.885Z,-5.8
2017-01-19T03:53:49.414Z,-5.79
2017-01-19T03:54:29.942Z,-5.83
2017-01-19T03:55:10.477Z,-5.74
2017-01-19T03:55:51.006Z,-5.82
2017-01-19T03:56:31.536Z,-5.79
2017-01-19T03:57:12.060Z,-5.79
2017-01-19T03:57:52.584Z,-5.83
2017-01-19T03:58:33.112Z,-5.84
2017-01-19T03:59:13.647Z,-5.79
2017-01-19T03:59:54.177Z,-5.74
2017-01-19T04:00:34.696Z,-5.8
2017-01-19T04:01:15.226Z,-5.8
2017-01-19T04:01:55.758Z,-5.74
2017-01-19T04:02:36.285Z,-5.76
2017-01-19T04:03:16.805Z,-5.76
2017-01-19T04:03:57.334Z,-5.75
2017-01-19T04:04:37.866Z,-5.89
2017-01-19T04:05:18.404Z,-5.86
2017-01-19T04:05:58.933Z,-5.82
2017-01-19T04:06:39.461Z,-5.82
2017-01-19T04:07:19.986Z,-5.8
2017-01-19T04:08:00.516Z,-5.82
2017-01-19T04:08:41.055Z,-5.8
2017-01-19T04:09:21.583Z,-5.86
2017-01-19T04:10:02.114Z,-5.9
2017-01-19T04:10:42.636Z,-5.93
2017-01-19T04:11:23.165Z,-5.86
2017-01-19T04:12:03.694Z,-5.86
2017-01-19T04:12:44.220Z,-5.86
2017-01-19T04:13:24.743Z,-5.84
2017-01-19T04:14:05.271Z,-5.86
2017-01-19T04:14:45.809Z,-5.89
2017-01-19T04:15:26.338Z,-5.89
2017-01-19T04:16:06.870Z,-5.84
2017-01-19T04:16:47.395Z,-5.86
2017-01-19T04:17:27.924Z,-5.89
2017-01-19T04:18:08.465Z,-5.9
2017-01-19T04:18:48.995Z,-5.98
2017-01-19T04:19:29.516Z,-5.87
2017-01-19T04:20:10.047Z,-5.94
2017-01-19T04:20:50.574Z,-5.89
2017-01-19T04:21:31.114Z,-5.92
2017-01-19T04:22:11.629Z,-5.98
2017-01-19T04:22:52.156Z,-5.98
2017-01-19T04:23:32.826Z,-5.93
2017-01-19T04:24:13.348Z,-6
2017-01-19T04:24:53.881Z,-6
2017-01-19T04:25:34.419Z,-6
2017-01-19T04:26:14.951Z,-5.98
2017-01-19T04:26:55.468Z,-6
2017-01-19T04:27:36.000Z,-6
2017-01-19T04:28:16.530Z,-6
2017-01-19T04:28:57.058Z,-6.05
2017-01-19T04:29:37.590Z,-5.98
2017-01-19T04:30:18.116Z,-6.05
2017-01-19T04:30:58.652Z,-6
2017-01-19T04:31:39.182Z,-6.05
2017-01-19T04:32:19.723Z,-6.03
2017-01-19T04:33:00.250Z,-6
2017-01-19T04:33:40.803Z,-6.05
2017-01-19T04:34:21.325Z,-6.04
2017-01-19T04:35:01.862Z,-6.04
2017-01-19T04:35:42.386Z,-5.98
2017-01-19T04:36:22.926Z,-6.05
2017-01-19T04:37:03.456Z,-6.07
2017-01-19T04:37:43.989Z,-6
2017-01-19T04:38:24.517Z,-6
2017-01-19T04:39:05.055Z,-6.04
2017-01-19T04:39:45.578Z,-6
2017-01-19T04:40:26.099Z,-6.03
2017-01-19T04:41:06.627Z,-6.07
2017-01-19T04:41:47.142Z,-5.94
2017-01-19T04:42:27.680Z,-6
2017-01-19T04:43:08.218Z,-5.98
2017-01-19T04:43:48.753Z,-6
2017-01-19T04:44:29.278Z,-6.03
2017-01-19T04:45:09.807Z,-6.01
2017-01-19T04:45:50.341Z,-5.94
2017-01-19T04:46:30.876Z,-5.92
2017-01-19T04:47:11.410Z,-6.03
2017-01-19T04:47:52.027Z,-6.04
2017-01-19T04:48:32.577Z,-6.03
2017-01-19T04:49:13.223Z,-6.01
2017-01-19T04:49:53.855Z,-6
2017-01-19T04:50:34.561Z,-6.01
2017-01-19T04:51:15.092Z,-6.01
2017-01-19T04:51:55.623Z,-6.04
2017-01-19T04:52:36.160Z,-6.03
2017-01-19T04:53:16.700Z,-6.04
2017-01-19T04:53:57.228Z,-6.03
2017-01-19T04:54:37.755Z,-6.07
2017-01-19T04:55:18.285Z,-6.11
2017-01-19T04:55:58.815Z,-6.15
2017-01-19T04:56:39.639Z,-6.1
2017-01-19T04:57:20.279Z,-6.08
2017-01-19T04:58:00.802Z,-6.11
2017-01-19T04:58:41.606Z,-6.16
2017-01-19T04:59:22.139Z,-6.13
2017-01-19T05:00:02.779Z,-6.18
2017-01-19T05:00:43.306Z,-6.16
2017-01-19T05:01:23.832Z,-6.11
2017-01-19T05:02:04.369Z,-6.18
2017-01-19T05:02:44.902Z,-6.15
2017-01-19T05:03:25.433Z,-6.13
2017-01-19T05:04:06.103Z,-6.13
2017-01-19T05:04:46.636Z,-6.13
2017-01-19T05:05:27.348Z,-6.13
2017-01-19T05:06:07.890Z,-6.16
2017-01-19T05:06:48.431Z,-6.13
2017-01-19T05:07:29.252Z,-6.15
2017-01-19T05:08:10.019Z,-6.15
2017-01-19T05:08:50.549Z,-6.15
2017-01-19T05:09:31.076Z,-6.13
2017-01-19T05:10:11.607Z,-6.11
2017-01-19T05:10:52.121Z,-6.13
2017-01-19T05:11:32.825Z,-6.13
2017-01-19T05:12:14.317Z,-6.22
2017-01-19T05:12:55.387Z,-6.21
2017-01-19T05:13:36.228Z,-6.15
2017-01-19T05:14:16.906Z,-6.23
2017-01-19T05:14:57.908Z,-6.18
2017-01-19T05:15:38.867Z,-6.23
2017-01-19T05:16:19.396Z,-6.21
2017-01-19T05:17:00.568Z,-6.25
2017-01-19T05:17:41.321Z,-6.11
2017-01-19T05:18:22.094Z,-6.23
2017-01-19T05:19:02.778Z,-6.23
2017-01-19T05:19:43.308Z,-6.26
2017-01-19T05:20:23.986Z,-6.28
2017-01-19T05:21:04.633Z,-6.18
2017-01-19T05:21:45.165Z,-6.22
2017-01-19T05:22:25.705Z,-6.22
2017-01-19T05:23:06.231Z,-6.21
2017-01-19T05:23:46.761Z,-6.22
2017-01-19T05:24:27.290Z,-6.21
2017-01-19T05:25:07.818Z,-6.23
2017-01-19T05:25:48.354Z,-6.19
2017-01-19T05:26:28.973Z,-6.23
2017-01-19T05:27:09.424Z,-6.19
2017-01-19T05:27:49.950Z,-6.25
2017-01-19T05:28:30.478Z,-6.19
2017-01-19T05:29:11.005Z,-6.22
2017-01-19T05:29:51.534Z,-6.19
2017-01-19T05:30:32.066Z,-6.19
2017-01-19T05:31:12.864Z,-6.23
2017-01-19T05:31:53.393Z,-6.18
2017-01-19T05:32:33.927Z,-6.22
2017-01-19T05:33:14.499Z,-6.22
2017-01-19T05:33:55.202Z,-6.21
2017-01-19T05:34:35.823Z,-6.19
2017-01-19T05:35:16.355Z,-6.25
2017-01-19T05:35:56.889Z,-6.21
2017-01-19T05:36:37.414Z,-6.25
2017-01-19T05:37:18.432Z,-6.19
2017-01-19T05:38:00.036Z,-6.25
2017-01-19T05:38:40.881Z,-6.19
2017-01-19T05:39:21.409Z,-6.18
2017-01-19T05:40:01.947Z,-6.31
2017-01-19T05:40:42.477Z,-6.23
2017-01-19T05:41:23.006Z,-6.25
2017-01-19T05:42:03.539Z,-6.21
2017-01-19T05:42:44.069Z,-6.21
2017-01-19T05:43:24.597Z,-6.23
2017-01-19T05:44:05.112Z,-6.32
2017-01-19T05:44:45.630Z,-6.31
2017-01-19T05:45:26.160Z,-6.22
2017-01-19T05:46:06.699Z,-6.26
2017-01-19T05:46:47.227Z,-6.23
2017-01-19T05:47:27.754Z,-6.25
2017-01-19T05:48:08.282Z,-6.23
2017-01-19T05:48:48.821Z,-6.23
2017-01-19T05:49:29.350Z,-6.29
2017-01-19T05:50:09.879Z,-6.21
2017-01-19T05:50:50.403Z,-6.22
2017-01-19T05:51:30.934Z,-6.16
2017-01-19T05:52:11.636Z,-6.23
2017-01-19T05:52:52.163Z,-6.25
2017-01-19T05:53:32.698Z,-6.23
2017-01-19T05:54:13.229Z,-6.16
2017-01-19T05:54:53.757Z,-6.25
2017-01-19T05:55:34.287Z,-6.25
2017-01-19T05:56:14.814Z,-6.19
2017-01-19T05:56:55.344Z,-6.18
2017-01-19T05:57:35.882Z,-6.25
2017-01-19T05:58:16.413Z,-6.21
2017-01-19T05:58:56.944Z,-6.26
2017-01-19T05:59:37.469Z,-6.31
2017-01-19T06:00:18.002Z,-6.22
2017-01-19T06:00:58.536Z,-6.28
2017-01-19T06:01:39.067Z,-6.18
2017-01-19T06:02:19.601Z,-6.23
2017-01-19T06:03:00.128Z,-6.23
2017-01-19T06:03:40.656Z,-6.22
2017-01-19T06:04:21.189Z,-6.22
2017-01-19T06:05:01.719Z,-6.28
2017-01-19T06:05:42.255Z,-6.28
2017-01-19T06:06:22.776Z,-6.29
2017-01-19T06:07:03.329Z,-6.32
2017-01-19T06:07:43.825Z,-6.21
2017-01-19T06:08:24.357Z,-6.29
2017-01-19T06:09:04.878Z,-6.23
2017-01-19T06:09:45.411Z,-6.28
2017-01-19T06:10:25.939Z,-6.19
2017-01-19T06:11:06.470Z,-6.21
2017-01-19T06:11:47.006Z,-6.25
2017-01-19T06:12:27.527Z,-6.29
2017-01-19T06:13:08.055Z,-6.22
2017-01-19T06:13:48.592Z,-6.25
2017-01-19T06:14:29.129Z,-6.22
2017-01-19T06:15:09.668Z,-6.34
2017-01-19T06:15:50.202Z,-6.21
2017-01-19T06:16:30.740Z,-6.16
2017-01-19T06:17:11.268Z,-6.18
2017-01-19T06:17:51.817Z,-6.21
2017-01-19T06:18:32.358Z,-6.18
2017-01-19T06:19:12.894Z,-6.18
2017-01-19T06:19:53.422Z,-6.21
2017-01-19T06:20:33.958Z,-6.26
2017-01-19T06:21:14.529Z,-6.26
2017-01-19T06:21:55.064Z,-6.28
2017-01-19T06:24:14.373Z,-6.26
2017-01-19T06:24:54.919Z,-6.26
2017-01-19T06:25:35.431Z,-6.18
2017-01-19T06:26:15.957Z,-6.36
2017-01-19T06:26:56.484Z,-6.31
2017-01-19T06:27:37.037Z,-6.31
2017-01-19T06:28:17.613Z,-6.25
2017-01-19T06:28:58.142Z,-6.32
2017-01-19T06:29:38.659Z,-6.32
2017-01-19T06:30:19.207Z,-6.28
2017-01-19T06:30:59.733Z,-6.31
2017-01-19T06:31:40.244Z,-6.36
2017-01-19T06:32:20.782Z,-6.32
2017-01-19T06:33:01.319Z,-6.29
2017-01-19T06:33:41.844Z,-6.29
2017-01-19T06:34:22.367Z,-6.39
2017-01-19T06:35:02.892Z,-6.26
2017-01-19T06:35:43.423Z,-6.32
2017-01-19T06:36:23.949Z,-6.28
2017-01-19T06:37:04.470Z,-6.31
2017-01-19T06:37:44.992Z,-6.28
2017-01-19T06:38:25.547Z,-6.36
2017-01-19T06:39:06.067Z,-6.42
2017-01-19T06:39:46.603Z,-6.34
2017-01-19T06:40:27.130Z,-6.29
2017-01-19T06:41:07.658Z,-6.37
2017-01-19T06:41:48.244Z,-6.26
2017-01-19T06:42:28.745Z,-6.28
2017-01-19T06:43:09.275Z,-6.28
2017-01-19T06:43:49.804Z,-6.31
2017-01-19T06:44:30.331Z,-6.28
2017-01-19T06:45:10.869Z,-6.31
2017-01-19T06:45:51.388Z,-6.23
2017-01-19T06:46:31.914Z,-6.28
2017-01-19T06:47:12.438Z,-6.34
2017-01-19T06:47:52.951Z,-6.29
2017-01-19T06:48:33.479Z,-6.31
2017-01-19T06:49:14.008Z,-6.34
2017-01-19T06:49:54.559Z,-6.34
2017-01-19T06:50:35.093Z,-6.36
2017-01-19T06:51:15.610Z,-6.28
2017-01-19T06:51:56.145Z,-6.37
2017-01-19T06:52:36.679Z,-6.28
2017-01-19T06:53:17.211Z,-6.31
2017-01-19T06:53:57.739Z,-6.28
2017-01-19T06:54:38.262Z,-6.29
2017-01-19T06:55:18.791Z,-6.34
2017-01-19T06:55:59.314Z,-6.32
2017-01-19T06:56:39.861Z,-6.34
2017-01-19T06:57:20.389Z,-6.37
2017-01-19T06:58:00.907Z,-6.28
2017-01-19T06:58:41.446Z,-6.34
2017-01-19T06:59:21.956Z,-6.39
2017-01-19T07:00:02.479Z,-6.37
2017-01-19T07:00:43.004Z,-6.29
2017-01-19T07:01:23.540Z,-6.34
2017-01-19T07:02:04.060Z,-6.29
2017-01-19T07:02:44.583Z,-6.31
2017-01-19T07:03:25.105Z,-6.4
2017-01-19T07:04:05.638Z,-6.31
2017-01-19T07:04:46.152Z,-6.31
2017-01-19T07:05:26.677Z,-6.52
2017-01-19T07:06:07.191Z,-6.37
2017-01-19T07:06:47.704Z,-6.49
2017-01-19T07:07:28.233Z,-6.36
2017-01-19T07:08:08.759Z,-6.42
2017-01-19T07:08:49.288Z,-6.4
2017-01-19T07:09:29.807Z,-6.5
2017-01-19T07:10:10.331Z,-6.42
2017-01-19T07:10:50.848Z,-6.4
2017-01-19T07:11:31.386Z,-6.42
2017-01-19T07:12:11.890Z,-6.39
2017-01-19T07:12:52.421Z,-6.4
2017-01-19T07:13:32.946Z,-6.36
2017-01-19T07:14:13.473Z,-6.46
2017-01-19T07:14:53.996Z,-6.34
2017-01-19T07:15:34.516Z,-6.31
2017-01-19T07:16:15.049Z,-6.36
2017-01-19T07:16:55.576Z,-6.31
2017-01-19T07:17:36.103Z,-6.37
2017-01-19T07:18:16.631Z,-6.34
2017-01-19T07:18:57.154Z,-6.37
2017-01-19T07:19:37.680Z,-6.34
2017-01-19T07:20:18.203Z,-6.34
2017-01-19T07:20:58.716Z,-6.29
2017-01-19T07:21:39.246Z,-6.42
2017-01-19T07:22:19.759Z,-6.4
2017-01-19T07:23:00.284Z,-6.36
2017-01-19T07:23:40.804Z,-6.28
2017-01-19T07:24:21.332Z,-6.4
2017-01-19T07:25:01.864Z,-6.29
2017-01-19T07:25:42.390Z,-6.34
2017-01-19T07:26:22.915Z,-6.37
2017-01-19T07:27:03.447Z,-6.39
2017-01-19T07:27:43.984Z,-6.34
2017-01-19T07:28:24.524Z,-6.31
2017-01-19T07:29:05.041Z,-6.29
2017-01-19T07:29:45.571Z,-6.37
2017-01-19T07:30:26.094Z,-6.28
2017-01-19T07:31:06.627Z,-6.34
2017-01-19T07:31:47.151Z,-6.31
2017-01-19T07:32:27.715Z,-6.4
2017-01-19T07:33:08.232Z,-6.32
2017-01-19T07:33:48.760Z,-6.49
2017-01-19T07:34:29.294Z,-6.31
2017-01-19T07:35:09.853Z,-6.34
2017-01-19T07:35:50.385Z,-6.42
2017-01-19T07:36:30.915Z,-6.36
2017-01-19T07:37:11.440Z,-6.37
2017-01-19T07:37:51.960Z,-6.52
2017-01-19T07:38:32.496Z,-6.37
2017-01-19T07:39:13.015Z,-6.39
2017-01-19T07:39:53.542Z,-6.43
2017-01-19T07:40:34.059Z,-6.42
2017-01-19T07:41:14.590Z,-6.37
2017-01-19T07:41:55.117Z,-6.37
2017-01-19T07:42:35.629Z,-6.36
2017-01-19T07:43:16.185Z,-6.44
2017-01-19T07:43:56.708Z,-6.43
2017-01-19T07:44:37.241Z,-6.4
2017-01-19T07:45:17.767Z,-6.43
2017-01-19T07:45:58.273Z,-6.39
2017-01-19T07:46:38.805Z,-6.34
2017-01-19T07:47:19.338Z,-6.32
2017-01-19T07:47:59.878Z,-6.52
2017-01-19T07:48:40.407Z,-6.52
2017-01-19T07:49:20.933Z,-6.43
2017-01-19T07:50:01.453Z,-6.49
2017-01-19T07:50:41.981Z,-6.34
2017-01-19T07:51:22.525Z,-6.34
2017-01-19T07:52:03.047Z,-6.36
2017-01-19T07:52:43.594Z,-6.37
2017-01-19T07:53:24.104Z,-6.29
2017-01-19T07:54:04.625Z,-6.34
2017-01-19T07:54:45.146Z,-6.29
2017-01-19T07:55:25.676Z,-6.26
2017-01-19T07:56:06.247Z,-6.36
2017-01-19T07:56:47.297Z,-6.21
2017-01-19T07:57:27.784Z,-6.31
2017-01-19T07:58:08.290Z,-6.23
2017-01-19T07:58:48.814Z,-6.32
2017-01-19T07:59:29.315Z,-6.26
2017-01-19T08:00:09.902Z,-6.22
2017-01-19T08:00:50.412Z,-6.23
2017-01-19T08:01:30.931Z,-6.16
2017-01-19T08:02:11.455Z,-6.21
2017-01-19T08:02:51.972Z,-6.31
2017-01-19T08:03:32.510Z,-6.23
2017-01-19T08:04:13.033Z,-6.23
2017-01-19T08:04:53.591Z,-6.34
2017-01-19T08:05:34.119Z,-6.19
2017-01-19T08:06:14.641Z,-6.22
2017-01-19T08:06:55.169Z,-6.23
2017-01-19T08:07:35.695Z,-6.13
2017-01-19T08:08:16.227Z,-6.18
2017-01-19T08:08:56.758Z,-6.13
2017-01-19T08:09:37.290Z,-6.1
2017-01-19T08:10:17.818Z,-6.16
2017-01-19T08:10:58.348Z,-6.18
2017-01-19T08:11:38.885Z,-6.15
2017-01-19T08:12:19.418Z,-6.04
2017-01-19T08:12:59.953Z,-6.03
2017-01-19T08:13:40.481Z,-6.05
2017-01-19T08:14:21.018Z,-5.97
2017-01-19T08:15:01.536Z,-5.9
2017-01-19T08:15:42.071Z,-6.04
2017-01-19T08:16:22.592Z,-5.98
2017-01-19T08:17:03.112Z,-6
2017-01-19T08:17:43.640Z,-5.94
2017-01-19T08:18:24.177Z,-5.92
2017-01-19T08:19:04.712Z,-5.9
2017-01-19T08:19:45.230Z,-6
2017-01-19T08:20:25.756Z,-5.94
2017-01-19T08:21:06.279Z,-5.92
2017-01-19T08:21:46.808Z,-5.84
2017-01-19T08:22:27.326Z,-5.83
2017-01-19T08:23:07.854Z,-5.84
2017-01-19T08:23:48.390Z,-5.79
2017-01-19T08:24:28.928Z,-5.86
2017-01-19T08:25:09.463Z,-5.76
2017-01-19T08:25:49.993Z,-5.79
2017-01-19T08:26:30.524Z,-5.83
2017-01-19T08:27:11.054Z,-5.75
2017-01-19T08:27:51.588Z,-5.74
2017-01-19T08:28:32.117Z,-5.75
2017-01-19T08:29:12.642Z,-5.74
2017-01-19T08:29:53.169Z,-5.8
2017-01-19T08:30:33.694Z,-5.68
2017-01-19T08:31:14.234Z,-5.64
2017-01-19T08:31:54.760Z,-5.65
2017-01-19T08:32:35.292Z,-5.65
2017-01-19T08:33:15.821Z,-5.72
2017-01-19T08:33:56.359Z,-5.66
2017-01-19T08:34:36.890Z,-5.69
2017-01-19T08:35:17.425Z,-5.53
2017-01-19T08:35:57.963Z,-5.59
2017-01-19T08:36:38.495Z,-5.53
2017-01-19T08:37:19.024Z,-5.44
2017-01-19T08:37:59.544Z,-5.5
2017-01-19T08:38:40.076Z,-5.47
2017-01-19T08:39:20.600Z,-5.39
2017-01-19T08:40:01.120Z,-5.36
2017-01-19T08:40:41.650Z,-5.37
2017-01-19T08:41:22.170Z,-5.33
2017-01-19T08:42:02.698Z,-5.3
2017-01-19T08:42:43.226Z,-5.3
2017-01-19T08:43:23.753Z,-5.3
2017-01-19T08:44:04.292Z,-5.32
2017-01-19T08:44:44.807Z,-5.22
2017-01-19T08:45:25.325Z,-5.19
2017-01-19T08:46:05.864Z,-5.23
2017-01-19T08:46:46.389Z,-5.13
2017-01-19T08:47:26.919Z,-5.08
2017-01-19T08:48:07.457Z,-5.11
2017-01-19T08:48:47.983Z,-5.08
2017-01-19T08:49:28.505Z,-5.14
2017-01-19T08:50:09.044Z,-5.08
2017-01-19T08:50:49.573Z,-4.93
2017-01-19T08:51:30.088Z,-5.03
2017-01-19T08:52:10.620Z,-5.03
2017-01-19T08:52:51.157Z,-5.03
2017-01-19T08:53:31.679Z,-5
2017-01-19T08:54:12.204Z,-5.03
2017-01-19T08:54:52.731Z,-5.03
2017-01-19T08:55:33.269Z,-4.99
2017-01-19T08:56:13.796Z,-4.97
2017-01-19T08:56:54.325Z,-4.86
2017-01-19T08:57:34.852Z,-4.83
2017-01-19T08:58:15.396Z,-4.87
2017-01-19T08:58:55.920Z,-4.9
2017-01-19T08:59:36.455Z,-4.86
2017-01-19T09:00:16.998Z,-4.81
2017-01-19T09:00:57.523Z,-4.89
2017-01-19T09:01:38.049Z,-4.77
2017-01-19T09:02:18.586Z,-4.68
2017-01-19T09:02:59.107Z,-4.74
2017-01-19T09:03:39.644Z,-4.58
2017-01-19T09:04:20.169Z,-4.53
2017-01-19T09:05:00.696Z,-4.5
2017-01-19T09:05:41.246Z,-4.39
2017-01-19T09:06:21.766Z,-4.35
2017-01-19T09:07:02.297Z,-4.21
2017-01-19T09:07:42.824Z,-4.29
2017-01-19T09:08:23.348Z,-4.12
2017-01-19T09:09:03.878Z,-4.03
2017-01-19T09:09:44.416Z,-3.86
2017-01-19T09:10:24.950Z,-3.81
2017-01-19T09:11:05.470Z,-3.69
2017-01-19T09:11:45.998Z,-3.57
2017-01-19T09:12:26.527Z,-3.45
2017-01-19T09:13:07.053Z,-3.36
2017-01-19T09:13:47.576Z,-3.25
2017-01-19T09:14:28.100Z,-3.12